Nearby METAR Reports

 

KSJC - San Jose, California, USA
Distance from station: NE 9mi, 14km
Updated: Sun, 13-Jun-2021 1:53pm CDT
Few Clouds
Few Clouds
 Wind from N
Wind: N 8 mph , 13 km/h
Temperature: 73°F , 23°C
Dew Point: 57°F , 14°C
Humidity: 57%
Barometer: 29.96 inHg , 1014.6 hPa
Clouds: Few Clouds
Visibility: 10 miles , 16 km
Cloud details: Few Clouds 1800 ft
Few Clouds 3400 ft
2021/06/13 18:53 KSJC 131853Z 35007KT 10SM FEW018 FEW034 23/14 A2996 RMK AO2 SLP144 T02280139 $
KNUQ - Moffett Nas/Mtn, California, USA
Distance from station: N 9mi, 14km
Updated: Sun, 13-Jun-2021 2:10pm CDT
Clear
Clear
 Wind from NNW
Wind: NNW 13 mph , 20 km/h
Temperature: 72°F , 22°C
Dew Point: 59°F , 15°C
Humidity: 65%
Barometer: 29.96 inHg , 1014.6 hPa
Clouds: Clear
Visibility: 10 miles , 16 km
2021/06/13 19:10 KNUQ 131910Z AUTO 34011KT 10SM CLR 22/15 A2996 RMK AO2
 
KPAO - Palo Alto, California, USA
Distance from station: NNW 14mi, 23km
Updated: Sun, 13-Jun-2021 1:47pm CDT
Partly cloudy
Partly cloudy
 Wind from N
Wind: N 14 mph , 22 km/h
Temperature: 72°F , 22°C
Dew Point: 64°F , 18°C
Humidity: 78%
Barometer: 29.97 inHg , 1014.9 hPa
Clouds: Partly cloudy
Visibility: 10 miles , 16 km
Cloud details: Partly cloudy 2500 ft
2021/06/13 18:47 KPAO 131847Z 36012KT 10SM SCT025 22/18 A2997
KRHV - San Jose/Reid, California, USA
Distance from station: ENE 12mi, 19km
Updated: Sun, 13-Jun-2021 1:47pm CDT
Few Clouds
Few Clouds
 Wind from NW
Wind: NW 9 mph , 15 km/h
Temperature: 75°F , 24°C
Dew Point: 57°F , 14°C
Humidity: 54%
Barometer: 29.96 inHg , 1014.6 hPa
Clouds: Few Clouds
Visibility: 10 miles , 16 km
Cloud details: Few Clouds 3500 ft
2021/06/13 18:47 KRHV 131847Z 31008KT 10SM FEW035 24/14 A2996
 
KOAK - Oakland, California, USA
Distance from station: NNW 31mi, 50km
Updated: Sun, 13-Jun-2021 1:53pm CDT
Partly cloudy
Partly cloudy
 Wind from W
Wind: W 14 mph , 22 km/h
Temperature: 70°F , 21°C
Dew Point: 59°F , 15°C
Humidity: 69%
Barometer: 29.97 inHg , 1014.9 hPa
Clouds: Partly cloudy
Visibility: 10 miles , 16 km
Cloud details: Few Clouds 1000 ft
Partly cloudy 1700 ft
2021/06/13 18:53 KOAK 131853Z 27012KT 10SM FEW010 SCT017 21/15 A2997 RMK AO2 SLP149 T02110150
KSQL - San Carlos Airpo, California, USA
Distance from station: NW 21mi, 34km
Updated: Sun, 13-Jun-2021 1:58pm CDT
Partly cloudy
Partly cloudy
 Wind from N
Wind: N 13 mph , 20 km/h
Temperature: 73°F , 23°C
Dew Point: 61°F , 16°C
Humidity: 65%
Barometer: 29.97 inHg , 1014.9 hPa
Clouds: Partly cloudy
Visibility: 10 miles , 16 km
Cloud details: Few Clouds 1000 ft
Partly cloudy 3300 ft
2021/06/13 18:58 KSQL 131858Z 36011KT 10SM FEW010 SCT033 23/16 A2997
 
KSFO - San Francisco, California, USA
Distance from station: NW 30mi, 49km
Updated: Sun, 13-Jun-2021 1:56pm CDT
Partly cloudy
Partly cloudy
 Wind from NNW
Wind: NNW 12 mph , 19 km/h
Temperature: 73°F , 23°C
Dew Point: 59°F , 15°C
Humidity: 61%
Barometer: 29.97 inHg , 1014.9 hPa
Clouds: Partly cloudy
Visibility: 10 miles , 16 km
Cloud details: Few Clouds 800 ft
Partly cloudy 2600 ft
2021/06/13 18:56 KSFO 131856Z 33010KT 10SM FEW008 SCT026 23/15 A2997 RMK AO2 SLP147 T02280150 $
KE16 - San Martin, California, USA
Distance from station: ESE 27mi, 43km
Updated: Sun, 13-Jun-2021 2:15pm CDT
Clear
Clear
 Wind from NNW
Wind: NNW 8 mph , 13 km/h, Gust: 18 mph , 30 km/h
Temperature: 79°F , 26°C
Dew Point: 57°F , 14°C
Humidity: 48%
Barometer: 29.95 inHg , 1014.2 hPa
Clouds: Clear
Visibility: 10 miles , 16 km
2021/06/13 19:15 KE16 131915Z AUTO 33007G16KT 10SM CLR 26/14 A2995 RMK AO2 PWINO PNO
 
KWVI - Watsonville, California, USA
Distance from station: SSE 27mi, 44km
Updated: Sun, 13-Jun-2021 1:53pm CDT
Clear
Clear
 Wind from SSW
Wind: SSW 9 mph , 15 km/h
Temperature: 75°F , 24°C
Dew Point: 59°F , 15°C
Humidity: 57%
Barometer: 29.97 inHg , 1014.9 hPa
Clouds: Clear
Visibility: 10 miles , 16 km
2021/06/13 18:53 KWVI 131853Z AUTO 20008KT 10SM CLR 24/15 A2997 RMK AO2 SLP146 T02440150
KHAF - Half Moon Bay, California, USA
Distance from station: WNW 31mi, 50km
Updated: Sun, 13-Jun-2021 2:15pm CDT
Partly cloudy
Partly cloudy
 
Temperature: 61°F , 16°C
Dew Point: 57°F , 14°C
Humidity: 88%
Barometer: 30.00 inHg , 1015.9 hPa
Clouds: Partly cloudy
Visibility: 8 miles , 13 km
Cloud details: Partly cloudy 300 ft
2021/06/13 19:15 KHAF 131915Z AUTO 8SM SCT003 16/14 A3000 RMK AO2
 
KHWD - Hayward, California, USA
Distance from station: N 28mi, 44km
Updated: Sun, 13-Jun-2021 1:54pm CDT
Clear
Clear
 Wind from W
Wind: W 10 mph , 17 km/h
Temperature: 72°F , 22°C
Dew Point: 59°F , 15°C
Humidity: 65%
Barometer: 29.97 inHg , 1014.9 hPa
Clouds: Clear
Visibility: 10 miles , 16 km
2021/06/13 18:54 KHWD 131854Z 28009KT 10SM CLR 22/15 A2997 RMK AO2 SLP157 T02170150
KLVK - Livermore, California, USA
Distance from station: NNE 31mi, 51km
Updated: Sun, 13-Jun-2021 1:53pm CDT
Clear
Clear
 Wind from WNW
Wind: WNW 14 mph , 22 km/h
Temperature: 75°F , 24°C
Dew Point: 55°F , 13°C
Humidity: 50%
Barometer: 29.95 inHg , 1014.2 hPa
Clouds: Clear
Visibility: 10 miles , 16 km
2021/06/13 18:53 KLVK 131853Z 29012KT 10SM CLR 24/13 A2995 RMK AO2 SLP136 T02440128